sensor_id;sensor_type;location;lat;lon;timestamp;pressure;altitude;pressure_sealevel;temperature;humidity
63321;BME280;49449;48.800;9.534;2023-01-27T00:00:35;98797.41;;;2.04;42.92
63321;BME280;49449;48.800;9.534;2023-01-27T00:03:04;98798.03;;;2.06;42.84
63321;BME280;49449;48.800;9.534;2023-01-27T00:05:33;98800.81;;;2.04;43.79
63321;BME280;49449;48.800;9.534;2023-01-27T00:08:01;98799.38;;;2.02;43.44
63321;BME280;49449;48.800;9.534;2023-01-27T00:10:28;98805.22;;;2.04;42.69
63321;BME280;49449;48.800;9.534;2023-01-27T00:12:56;98796.41;;;2.05;42.98
63321;BME280;49449;48.800;9.534;2023-01-27T00:15:41;98792.19;;;2.04;42.76
63321;BME280;49449;48.800;9.534;2023-01-27T00:18:11;98786.81;;;2.05;43.24
63321;BME280;49449;48.800;9.534;2023-01-27T00:20:39;98783.38;;;2.05;43.23
63321;BME280;49449;48.800;9.534;2023-01-27T00:23:26;98797.56;;;2.02;42.90
63321;BME280;49449;48.800;9.534;2023-01-27T00:26:14;98799.38;;;1.94;43.84
63321;BME280;49449;48.800;9.534;2023-01-27T00:28:43;98793.00;;;1.96;42.82
63321;BME280;49449;48.800;9.534;2023-01-27T00:31:13;98787.81;;;1.71;43.16
63321;BME280;49449;48.800;9.534;2023-01-27T00:34:00;98792.22;;;1.79;44.08
63321;BME280;49449;48.800;9.534;2023-01-27T00:36:34;98794.47;;;1.90;43.04
63321;BME280;49449;48.800;9.534;2023-01-27T00:39:03;98790.56;;;1.95;43.89
63321;BME280;49449;48.800;9.534;2023-01-27T00:41:31;98794.16;;;1.94;42.97
63321;BME280;49449;48.800;9.534;2023-01-27T00:44:01;98792.34;;;1.94;43.94
63321;BME280;49449;48.800;9.534;2023-01-27T00:46:31;98787.94;;;1.95;45.54
63321;BME280;49449;48.800;9.534;2023-01-27T00:49:00;98799.03;;;1.97;45.17
63321;BME280;49449;48.800;9.534;2023-01-27T00:51:28;98799.84;;;1.97;44.27
63321;BME280;49449;48.800;9.534;2023-01-27T00:53:56;98798.38;;;1.95;44.29
63321;BME280;49449;48.800;9.534;2023-01-27T00:56:24;98795.59;;;1.96;43.51
63321;BME280;49449;48.800;9.534;2023-01-27T00:58:53;98800.66;;;1.98;44.41
63321;BME280;49449;48.800;9.534;2023-01-27T01:01:21;98800.97;;;1.95;43.75
63321;BME280;49449;48.800;9.534;2023-01-27T01:03:49;98804.25;;;1.88;43.35
63321;BME280;49449;48.800;9.534;2023-01-27T01:06:18;98796.28;;;1.90;44.42
63321;BME280;49449;48.800;9.534;2023-01-27T01:08:46;98801.50;;;1.90;44.31
63321;BME280;49449;48.800;9.534;2023-01-27T01:11:16;98800.00;;;1.87;45.16
63321;BME280;49449;48.800;9.534;2023-01-27T01:13:44;98809.16;;;1.91;45.18
63321;BME280;49449;48.800;9.534;2023-01-27T01:16:14;98803.59;;;1.95;43.95
63321;BME280;49449;48.800;9.534;2023-01-27T01:18:42;98814.00;;;1.95;44.21
63321;BME280;49449;48.800;9.534;2023-01-27T01:21:10;98813.03;;;1.96;44.19
63321;BME280;49449;48.800;9.534;2023-01-27T01:23:41;98811.59;;;1.93;43.66
63321;BME280;49449;48.800;9.534;2023-01-27T01:26:09;98817.78;;;1.92;44.57
63321;BME280;49449;48.800;9.534;2023-01-27T01:28:37;98818.56;;;1.92;43.23
63321;BME280;49449;48.800;9.534;2023-01-27T01:31:06;98813.88;;;1.88;43.52
63321;BME280;49449;48.800;9.534;2023-01-27T01:33:35;98808.81;;;1.86;44.50
63321;BME280;49449;48.800;9.534;2023-01-27T01:36:04;98806.69;;;1.90;44.54
63321;BME280;49449;48.800;9.534;2023-01-27T01:38:32;98807.81;;;1.87;45.23
63321;BME280;49449;48.800;9.534;2023-01-27T01:41:01;98807.50;;;1.90;45.17
63321;BME280;49449;48.800;9.534;2023-01-27T01:43:29;98802.28;;;1.90;44.53
63321;BME280;49449;48.800;9.534;2023-01-27T01:45:57;98796.94;;;1.92;44.67
63321;BME280;49449;48.800;9.534;2023-01-27T01:48:35;98801.34;;;1.91;45.32
63321;BME280;49449;48.800;9.534;2023-01-27T01:51:07;98802.28;;;1.90;44.50
63321;BME280;49449;48.800;9.534;2023-01-27T01:53:40;98793.69;;;1.90;44.45
63321;BME280;49449;48.800;9.534;2023-01-27T01:56:14;98795.28;;;1.91;44.79
63321;BME280;49449;48.800;9.534;2023-01-27T01:58:43;98795.13;;;1.92;44.98
63321;BME280;49449;48.800;9.534;2023-01-27T02:01:12;98788.94;;;1.94;43.98
63321;BME280;49449;48.800;9.534;2023-01-27T02:03:42;98795.13;;;1.92;44.73
63321;BME280;49449;48.800;9.534;2023-01-27T02:06:12;98780.16;;;1.86;43.94
63321;BME280;49449;48.800;9.534;2023-01-27T02:08:41;98780.81;;;1.88;44.33
63321;BME280;49449;48.800;9.534;2023-01-27T02:11:11;98776.75;;;1.86;43.92
63321;BME280;49449;48.800;9.534;2023-01-27T02:13:40;98782.13;;;1.76;43.44
63321;BME280;49449;48.800;9.534;2023-01-27T02:16:10;98774.47;;;1.75;44.72
63321;BME280;49449;48.800;9.534;2023-01-27T02:18:39;98772.66;;;1.75;45.10
63321;BME280;49449;48.800;9.534;2023-01-27T02:21:07;98775.94;;;1.69;44.41
63321;BME280;49449;48.800;9.534;2023-01-27T02:23:54;98777.91;;;1.67;43.78
63321;BME280;49449;48.800;9.534;2023-01-27T02:26:28;98773.50;;;1.76;43.98
63321;BME280;49449;48.800;9.534;2023-01-27T02:28:59;98775.63;;;1.72;43.29
63321;BME280;49449;48.800;9.534;2023-01-27T02:31:28;98769.56;;;1.71;48.57
63321;BME280;49449;48.800;9.534;2023-01-27T02:33:59;98764.84;;;1.75;46.90
63321;BME280;49449;48.800;9.534;2023-01-27T02:36:31;98767.66;;;1.73;44.46
63321;BME280;49449;48.800;9.534;2023-01-27T02:39:01;98774.47;;;1.75;45.42
63321;BME280;49449;48.800;9.534;2023-01-27T02:41:33;98770.06;;;1.75;45.32
63321;BME280;49449;48.800;9.534;2023-01-27T02:44:01;98773.16;;;1.79;44.70
63321;BME280;49449;48.800;9.534;2023-01-27T02:46:29;98774.94;;;1.78;44.06
63321;BME280;49449;48.800;9.534;2023-01-27T02:48:57;98776.59;;;1.79;45.20
63321;BME280;49449;48.800;9.534;2023-01-27T02:51:26;98774.63;;;1.81;44.83
63321;BME280;49449;48.800;9.534;2023-01-27T02:53:53;98766.97;;;1.80;43.99
63321;BME280;49449;48.800;9.534;2023-01-27T02:56:21;98766.97;;;1.71;44.24
63321;BME280;49449;48.800;9.534;2023-01-27T02:58:51;98768.59;;;1.64;43.43
63321;BME280;49449;48.800;9.534;2023-01-27T03:01:18;98757.72;;;1.44;42.92
63321;BME280;49449;48.800;9.534;2023-01-27T03:03:46;98763.41;;;1.48;44.93
63321;BME280;49449;48.800;9.534;2023-01-27T03:06:14;98767.63;;;1.57;43.77
63321;BME280;49449;48.800;9.534;2023-01-27T03:08:43;98764.72;;;1.52;44.13
63321;BME280;49449;48.800;9.534;2023-01-27T03:11:11;98767.16;;;1.62;43.83
63321;BME280;49449;48.800;9.534;2023-01-27T03:13:39;98774.66;;;1.65;43.48
63321;BME280;49449;48.800;9.534;2023-01-27T03:16:10;98781.97;;;1.69;43.70
63321;BME280;49449;48.800;9.534;2023-01-27T03:18:55;98780.00;;;1.71;43.43
63321;BME280;49449;48.800;9.534;2023-01-27T03:21:23;98781.47;;;1.66;44.54
63321;BME280;49449;48.800;9.534;2023-01-27T03:23:51;98782.13;;;1.68;45.26
63321;BME280;49449;48.800;9.534;2023-01-27T03:26:19;98778.38;;;1.70;45.19
63321;BME280;49449;48.800;9.534;2023-01-27T03:28:46;98778.22;;;1.72;44.73
63321;BME280;49449;48.800;9.534;2023-01-27T03:31:35;98785.03;;;1.73;44.31
63321;BME280;49449;48.800;9.534;2023-01-27T03:34:03;98776.44;;;1.72;44.92
63321;BME280;49449;48.800;9.534;2023-01-27T03:36:31;98776.91;;;1.76;44.11
63321;BME280;49449;48.800;9.534;2023-01-27T03:39:16;98772.03;;;1.57;42.99
63321;BME280;49449;48.800;9.534;2023-01-27T03:42:01;98774.31;;;1.51;43.31
63321;BME280;49449;48.800;9.534;2023-01-27T03:44:47;98784.91;;;1.58;42.88
63321;BME280;49449;48.800;9.534;2023-01-27T03:47:33;98775.97;;;1.52;41.27
63321;BME280;49449;48.800;9.534;2023-01-27T03:50:01;98777.84;;;1.34;42.25
63321;BME280;49449;48.800;9.534;2023-01-27T03:52:36;98772.81;;;1.41;43.93
63321;BME280;49449;48.800;9.534;2023-01-27T03:55:05;98777.88;;;1.50;44.64
63321;BME280;49449;48.800;9.534;2023-01-27T03:57:35;98769.75;;;1.53;44.71
63321;BME280;49449;48.800;9.534;2023-01-27T04:00:04;98777.72;;;1.60;43.36
63321;BME280;49449;48.800;9.534;2023-01-27T04:02:33;98783.59;;;1.46;43.44
63321;BME280;49449;48.800;9.534;2023-01-27T04:05:18;98783.78;;;1.52;43.74
63321;BME280;49449;48.800;9.534;2023-01-27T04:08:04;98782.47;;;1.57;43.91
63321;BME280;49449;48.800;9.534;2023-01-27T04:10:32;98779.50;;;1.35;42.93
63321;BME280;49449;48.800;9.534;2023-01-27T04:13:00;98778.03;;;1.41;44.33
63321;BME280;49449;48.800;9.534;2023-01-27T04:15:26;98771.88;;;1.50;43.91
63321;BME280;49449;48.800;9.534;2023-01-27T04:17:55;98768.63;;;1.56;44.19
63321;BME280;49449;48.800;9.534;2023-01-27T04:20:23;98763.91;;;1.60;44.42
63321;BME280;49449;48.800;9.534;2023-01-27T04:22:51;98776.44;;;1.56;43.51
63321;BME280;49449;48.800;9.534;2023-01-27T04:25:19;98771.72;;;1.60;44.38
63321;BME280;49449;48.800;9.534;2023-01-27T04:27:46;98765.50;;;1.61;43.77
63321;BME280;49449;48.800;9.534;2023-01-27T04:30:15;98774.81;;;1.63;43.93
63321;BME280;49449;48.800;9.534;2023-01-27T04:32:42;98774.66;;;1.65;44.19
63321;BME280;49449;48.800;9.534;2023-01-27T04:35:11;98786.34;;;1.61;43.71
63321;BME280;49449;48.800;9.534;2023-01-27T04:37:39;98780.81;;;1.64;44.18
63321;BME280;49449;48.800;9.534;2023-01-27T04:40:08;98776.25;;;1.66;44.20
63321;BME280;49449;48.800;9.534;2023-01-27T04:42:36;98774.31;;;1.68;44.25
63321;BME280;49449;48.800;9.534;2023-01-27T04:45:05;98786.38;;;1.69;44.38
63321;BME280;49449;48.800;9.534;2023-01-27T04:47:33;98785.56;;;1.68;44.09
63321;BME280;49449;48.800;9.534;2023-01-27T04:50:01;98786.19;;;1.70;44.88
63321;BME280;49449;48.800;9.534;2023-01-27T04:52:30;98792.22;;;1.71;44.81
63321;BME280;49449;48.800;9.534;2023-01-27T04:54:58;98793.69;;;1.73;43.85
63321;BME280;49449;48.800;9.534;2023-01-27T04:57:25;98802.00;;;1.77;44.75
63321;BME280;49449;48.800;9.534;2023-01-27T04:59:53;98798.25;;;1.80;44.53
63321;BME280;49449;48.800;9.534;2023-01-27T05:02:21;98793.84;;;1.80;43.98
63321;BME280;49449;48.800;9.534;2023-01-27T05:04:48;98810.63;;;1.78;44.74
63321;BME280;49449;48.800;9.534;2023-01-27T05:07:16;98800.84;;;1.80;44.79
63321;BME280;49449;48.800;9.534;2023-01-27T05:09:45;98802.28;;;1.82;43.85
63321;BME280;49449;48.800;9.534;2023-01-27T05:12:13;98795.00;;;1.86;42.71
63321;BME280;49449;48.800;9.534;2023-01-27T05:14:41;98806.38;;;1.85;43.42
63321;BME280;49449;48.800;9.534;2023-01-27T05:17:08;98799.69;;;1.82;43.25
63321;BME280;49449;48.800;9.534;2023-01-27T05:19:36;98796.91;;;1.84;42.94
63321;BME280;49449;48.800;9.534;2023-01-27T05:22:04;98801.66;;;1.80;43.48
63321;BME280;49449;48.800;9.534;2023-01-27T05:24:32;98807.50;;;1.82;43.47
63321;BME280;49449;48.800;9.534;2023-01-27T05:27:01;98802.66;;;1.79;43.29
63321;BME280;49449;48.800;9.534;2023-01-27T05:29:28;98810.47;;;1.79;42.56
63321;BME280;49449;48.800;9.534;2023-01-27T05:31:56;98806.38;;;1.85;42.32
63321;BME280;49449;48.800;9.534;2023-01-27T05:34:24;98808.97;;;1.85;43.03
63321;BME280;49449;48.800;9.534;2023-01-27T05:36:51;98816.00;;;1.84;42.28
63321;BME280;49449;48.800;9.534;2023-01-27T05:39:19;98804.91;;;1.82;42.52
63321;BME280;49449;48.800;9.534;2023-01-27T05:41:47;98810.63;;;1.86;42.56
63321;BME280;49449;48.800;9.534;2023-01-27T05:44:16;98814.69;;;1.88;42.75
63321;BME280;49449;48.800;9.534;2023-01-27T05:46:43;98818.75;;;1.91;42.13
63321;BME280;49449;48.800;9.534;2023-01-27T05:49:11;98815.16;;;1.92;41.98
63321;BME280;49449;48.800;9.534;2023-01-27T05:51:39;98821.34;;;1.91;42.20
63321;BME280;49449;48.800;9.534;2023-01-27T05:54:07;98818.09;;;1.89;42.38
63321;BME280;49449;48.800;9.534;2023-01-27T05:56:35;98816.47;;;1.88;42.42
63321;BME280;49449;48.800;9.534;2023-01-27T05:59:03;98811.75;;;1.91;42.48
63321;BME280;49449;48.800;9.534;2023-01-27T06:01:33;98815.66;;;1.87;42.56
63321;BME280;49449;48.800;9.534;2023-01-27T06:04:03;98806.84;;;1.80;42.41
63321;BME280;49449;48.800;9.534;2023-01-27T06:06:32;98806.06;;;1.80;42.91
63321;BME280;49449;48.800;9.534;2023-01-27T06:09:00;98802.13;;;1.84;42.97
63321;BME280;49449;48.800;9.534;2023-01-27T06:11:28;98810.28;;;1.89;42.20
63321;BME280;49449;48.800;9.534;2023-01-27T06:13:55;98816.31;;;1.89;41.93
63321;BME280;49449;48.800;9.534;2023-01-27T06:16:23;98816.31;;;1.89;43.08
63321;BME280;49449;48.800;9.534;2023-01-27T06:18:52;98822.19;;;1.91;42.61
63321;BME280;49449;48.800;9.534;2023-01-27T06:21:20;98823.94;;;1.91;41.99
63321;BME280;49449;48.800;9.534;2023-01-27T06:23:48;98828.03;;;1.94;42.13
63321;BME280;49449;48.800;9.534;2023-01-27T06:26:17;98826.56;;;1.91;41.49
63321;BME280;49449;48.800;9.534;2023-01-27T06:28:46;98827.56;;;1.90;43.36
63321;BME280;49449;48.800;9.534;2023-01-27T06:31:15;98832.44;;;1.93;42.00
63321;BME280;49449;48.800;9.534;2023-01-27T06:33:44;98828.19;;;1.92;42.12
63321;BME280;49449;48.800;9.534;2023-01-27T06:36:14;98834.84;;;1.95;41.68
63321;BME280;49449;48.800;9.534;2023-01-27T06:38:43;98833.88;;;1.96;41.96
63321;BME280;49449;48.800;9.534;2023-01-27T06:41:11;98838.78;;;1.90;41.12
63321;BME280;49449;48.800;9.534;2023-01-27T06:43:39;98857.19;;;1.89;42.01
63321;BME280;49449;48.800;9.534;2023-01-27T06:46:06;98853.59;;;1.90;42.12
63321;BME280;49449;48.800;9.534;2023-01-27T06:48:34;98859.78;;;1.89;42.36
63321;BME280;49449;48.800;9.534;2023-01-27T06:51:03;98864.19;;;1.88;42.37
63321;BME280;49449;48.800;9.534;2023-01-27T06:53:32;98869.06;;;1.83;41.98
63321;BME280;49449;48.800;9.534;2023-01-27T06:56:02;98870.03;;;1.82;41.96
63321;BME280;49449;48.800;9.534;2023-01-27T06:58:30;98878.03;;;1.81;42.10
63321;BME280;49449;48.800;9.534;2023-01-27T07:00:58;98869.06;;;1.83;43.04
63321;BME280;49449;48.800;9.534;2023-01-27T07:03:26;98873.97;;;1.86;42.58
63321;BME280;49449;48.800;9.534;2023-01-27T07:05:53;98866.78;;;1.88;42.91
63321;BME280;49449;48.800;9.534;2023-01-27T07:08:21;98866.78;;;1.88;41.62
63321;BME280;49449;48.800;9.534;2023-01-27T07:10:50;98878.53;;;1.84;41.45
63321;BME280;49449;48.800;9.534;2023-01-27T07:13:18;98881.78;;;1.86;42.13
63321;BME280;49449;48.800;9.534;2023-01-27T07:15:46;98888.28;;;1.90;41.24
63321;BME280;49449;48.800;9.534;2023-01-27T07:18:14;98888.28;;;1.90;41.82
63321;BME280;49449;48.800;9.534;2023-01-27T07:20:41;98895.47;;;1.88;42.64
63321;BME280;49449;48.800;9.534;2023-01-27T07:23:09;98896.09;;;1.90;42.01
63321;BME280;49449;48.800;9.534;2023-01-27T07:25:38;98899.72;;;1.89;41.05
63321;BME280;49449;48.800;9.534;2023-01-27T07:28:08;98902.63;;;1.86;41.08
63321;BME280;49449;48.800;9.534;2023-01-27T07:30:35;98901.31;;;1.82;40.72
63321;BME280;49449;48.800;9.534;2023-01-27T07:33:05;98909.97;;;1.83;41.42
63321;BME280;49449;48.800;9.534;2023-01-27T07:35:34;98908.16;;;1.83;41.29
63321;BME280;49449;48.800;9.534;2023-01-27T07:38:02;98907.50;;;1.81;41.70
63321;BME280;49449;48.800;9.534;2023-01-27T07:40:30;98909.78;;;1.84;42.06
63321;BME280;49449;48.800;9.534;2023-01-27T07:42:58;98919.88;;;1.87;43.61
63321;BME280;49449;48.800;9.534;2023-01-27T07:45:28;98913.22;;;1.85;42.64
63321;BME280;49449;48.800;9.534;2023-01-27T07:47:59;98920.38;;;1.83;42.68
63321;BME280;49449;48.800;9.534;2023-01-27T07:50:27;98917.47;;;1.86;40.77
63321;BME280;49449;48.800;9.534;2023-01-27T07:52:58;98923.31;;;1.88;41.22
63321;BME280;49449;48.800;9.534;2023-01-27T07:55:26;98930.31;;;1.87;42.71
63321;BME280;49449;48.800;9.534;2023-01-27T07:57:54;98923.31;;;1.88;41.24
63321;BME280;49449;48.800;9.534;2023-01-27T08:00:23;98921.34;;;1.90;41.16
63321;BME280;49449;48.800;9.534;2023-01-27T08:02:53;98923.31;;;1.88;41.61
63321;BME280;49449;48.800;9.534;2023-01-27T08:05:21;98922.16;;;1.90;41.74
63321;BME280;49449;48.800;9.534;2023-01-27T08:07:49;98930.97;;;1.89;41.75
63321;BME280;49449;48.800;9.534;2023-01-27T08:10:17;98932.09;;;1.87;41.82
63321;BME280;49449;48.800;9.534;2023-01-27T08:12:45;98927.53;;;1.89;41.62
63321;BME280;49449;48.800;9.534;2023-01-27T08:15:13;98929.81;;;1.92;40.96
63321;BME280;49449;48.800;9.534;2023-01-27T08:17:44;98940.09;;;1.94;41.91
63321;BME280;49449;48.800;9.534;2023-01-27T08:20:20;98942.53;;;1.95;41.34
63321;BME280;49449;48.800;9.534;2023-01-27T08:22:48;98941.91;;;1.93;40.82
63321;BME280;49449;48.800;9.534;2023-01-27T08:25:15;98932.25;;;1.85;41.00
63321;BME280;49449;48.800;9.534;2023-01-27T08:27:43;98945.13;;;1.87;41.09
63321;BME280;49449;48.800;9.534;2023-01-27T08:30:11;98935.50;;;1.87;41.76
63321;BME280;49449;48.800;9.534;2023-01-27T08:32:39;98943.81;;;1.91;41.11
63321;BME280;49449;48.800;9.534;2023-01-27T08:35:07;98939.59;;;1.90;40.68
63321;BME280;49449;48.800;9.534;2023-01-27T08:37:37;98952.13;;;1.86;40.37
63321;BME280;49449;48.800;9.534;2023-01-27T08:40:05;98952.28;;;1.85;40.98
63321;BME280;49449;48.800;9.534;2023-01-27T08:42:33;98952.28;;;1.85;41.02
63321;BME280;49449;48.800;9.534;2023-01-27T08:45:00;98951.66;;;1.83;40.00
63321;BME280;49449;48.800;9.534;2023-01-27T08:47:29;98954.41;;;1.81;40.32
63321;BME280;49449;48.800;9.534;2023-01-27T08:49:57;98952.13;;;1.78;41.21
63321;BME280;49449;48.800;9.534;2023-01-27T08:52:25;98960.59;;;1.80;40.74
63321;BME280;49449;48.800;9.534;2023-01-27T08:54:54;98941.06;;;1.84;40.85
63321;BME280;49449;48.800;9.534;2023-01-27T08:57:22;98941.19;;;1.75;40.73
63321;BME280;49449;48.800;9.534;2023-01-27T08:59:50;98948.69;;;1.78;40.93
63321;BME280;49449;48.800;9.534;2023-01-27T09:02:18;98937.78;;;1.82;40.71
63321;BME280;49449;48.800;9.534;2023-01-27T09:04:47;98943.31;;;1.87;40.65
63321;BME280;49449;48.800;9.534;2023-01-27T09:07:16;98949.22;;;1.89;40.92
63321;BME280;49449;48.800;9.534;2023-01-27T09:09:45;98950.84;;;1.90;40.51
63321;BME280;49449;48.800;9.534;2023-01-27T09:12:14;98959.94;;;1.95;40.05
63321;BME280;49449;48.800;9.534;2023-01-27T09:14:42;98953.13;;;1.94;40.38
63321;BME280;49449;48.800;9.534;2023-01-27T09:17:10;98949.84;;;2.00;40.99
63321;BME280;49449;48.800;9.534;2023-01-27T09:19:38;98955.75;;;2.02;40.86
63321;BME280;49449;48.800;9.534;2023-01-27T09:22:05;98952.16;;;2.03;41.07
63321;BME280;49449;48.800;9.534;2023-01-27T09:24:33;98959.66;;;2.06;40.20
63321;BME280;49449;48.800;9.534;2023-01-27T09:27:01;98959.16;;;2.02;40.72
63321;BME280;49449;48.800;9.534;2023-01-27T09:29:30;98956.88;;;2.07;41.01
63321;BME280;49449;48.800;9.534;2023-01-27T09:31:58;98952.00;;;2.13;41.08
63321;BME280;49449;48.800;9.534;2023-01-27T09:34:25;98939.78;;;2.13;40.14
63321;BME280;49449;48.800;9.534;2023-01-27T09:36:56;98954.63;;;2.13;39.82
63321;BME280;49449;48.800;9.534;2023-01-27T09:39:25;98963.41;;;2.11;40.53
63321;BME280;49449;48.800;9.534;2023-01-27T09:42:15;98960.94;;;2.10;41.84
63321;BME280;49449;48.800;9.534;2023-01-27T09:48:26;98964.53;;;2.17;42.61
63321;BME280;49449;48.800;9.534;2023-01-27T09:51:01;98952.16;;;2.19;41.02
63321;BME280;49449;48.800;9.534;2023-01-27T09:53:52;98962.91;;;2.16;41.06
63321;BME280;49449;48.800;9.534;2023-01-27T09:56:31;98958.66;;;2.07;41.32
63321;BME280;49449;48.800;9.534;2023-01-27T09:59:15;98957.88;;;2.15;40.39
63321;BME280;49449;48.800;9.534;2023-01-27T10:01:52;98949.88;;;2.16;40.37
63321;BME280;49449;48.800;9.534;2023-01-27T10:04:36;98955.88;;;2.08;39.04
63321;BME280;49449;48.800;9.534;2023-01-27T10:07:22;98954.78;;;2.11;38.46
63321;BME280;49449;48.800;9.534;2023-01-27T10:10:05;98949.56;;;2.11;36.85
63321;BME280;49449;48.800;9.534;2023-01-27T10:12:49;98953.47;;;2.15;37.87
63321;BME280;49449;48.800;9.534;2023-01-27T10:15:32;98960.31;;;2.16;37.42
63321;BME280;49449;48.800;9.534;2023-01-27T10:18:18;98957.53;;;2.18;37.55
63321;BME280;49449;48.800;9.534;2023-01-27T10:21:00;98961.94;;;2.17;37.77
63321;BME280;49449;48.800;9.534;2023-01-27T10:23:36;98972.69;;;2.22;36.99
63321;BME280;49449;48.800;9.534;2023-01-27T10:26:12;98972.34;;;2.17;36.57
63321;BME280;49449;48.800;9.534;2023-01-27T10:28:49;98978.41;;;2.18;37.16
63321;BME280;49449;48.800;9.534;2023-01-27T10:31:22;98979.50;;;2.07;37.12
63321;BME280;49449;48.800;9.534;2023-01-27T10:33:54;98976.91;;;2.07;37.07
63321;BME280;49449;48.800;9.534;2023-01-27T10:36:27;98982.13;;;2.07;38.06
63321;BME280;49449;48.800;9.534;2023-01-27T10:39:10;98978.53;;;2.08;38.26
63321;BME280;49449;48.800;9.534;2023-01-27T10:41:48;98983.13;;;2.14;39.06
63321;BME280;49449;48.800;9.534;2023-01-27T10:44:34;98974.28;;;2.07;37.96
63321;BME280;49449;48.800;9.534;2023-01-27T10:47:10;98972.97;;;1.95;39.50
63321;BME280;49449;48.800;9.534;2023-01-27T10:49:45;98982.47;;;2.04;38.82
63321;BME280;49449;48.800;9.534;2023-01-27T10:52:19;98978.38;;;2.09;38.37
63321;BME280;49449;48.800;9.534;2023-01-27T10:54:50;98976.28;;;2.13;38.64
63321;BME280;49449;48.800;9.534;2023-01-27T10:57:24;98975.63;;;2.11;38.43
63321;BME280;49449;48.800;9.534;2023-01-27T11:00:02;98979.69;;;2.14;38.38
63321;BME280;49449;48.800;9.534;2023-01-27T11:02:57;98972.84;;;2.04;38.83
63321;BME280;49449;48.800;9.534;2023-01-27T11:05:34;98967.31;;;2.07;38.22
63321;BME280;49449;48.800;9.534;2023-01-27T11:08:09;98972.19;;;2.10;38.51
63321;BME280;49449;48.800;9.534;2023-01-27T11:10:41;98962.25;;;2.06;38.11
63321;BME280;49449;48.800;9.534;2023-01-27T11:13:32;98964.53;;;2.09;38.65
63321;BME280;49449;48.800;9.534;2023-01-27T11:16:03;98950.03;;;2.15;39.86
63321;BME280;49449;48.800;9.534;2023-01-27T11:18:34;98963.56;;;2.18;37.19
63321;BME280;49449;48.800;9.534;2023-01-27T11:21:09;98950.19;;;2.13;37.85
63321;BME280;49449;48.800;9.534;2023-01-27T11:23:40;98960.16;;;2.18;38.41
63321;BME280;49449;48.800;9.534;2023-01-27T11:26:18;98958.03;;;2.21;38.25
63321;BME280;49449;48.800;9.534;2023-01-27T11:28:53;98957.53;;;2.26;38.82
63321;BME280;49449;48.800;9.534;2023-01-27T11:31:29;98954.59;;;2.29;38.52
63321;BME280;49449;48.800;9.534;2023-01-27T11:34:06;98950.53;;;2.35;38.48
63321;BME280;49449;48.800;9.534;2023-01-27T11:36:39;98947.44;;;2.39;38.66
63321;BME280;49449;48.800;9.534;2023-01-27T11:39:08;98951.66;;;2.40;38.71
63321;BME280;49449;48.800;9.534;2023-01-27T11:41:37;98961.94;;;2.42;39.06
63321;BME280;49449;48.800;9.534;2023-01-27T11:44:11;98951.66;;;2.40;38.38
63321;BME280;49449;48.800;9.534;2023-01-27T11:46:44;98942.38;;;2.46;38.82
63321;BME280;49449;48.800;9.534;2023-01-27T11:49:14;98945.97;;;2.45;37.63
63321;BME280;49449;48.800;9.534;2023-01-27T11:51:46;98944.16;;;2.45;38.58
63321;BME280;49449;48.800;9.534;2023-01-27T11:54:17;98941.72;;;2.44;39.00
63321;BME280;49449;48.800;9.534;2023-01-27T11:56:49;98934.72;;;2.36;39.00
63321;BME280;49449;48.800;9.534;2023-01-27T11:59:20;98932.75;;;2.38;39.32
63321;BME280;49449;48.800;9.534;2023-01-27T12:01:52;98925.41;;;2.42;38.65
63321;BME280;49449;48.800;9.534;2023-01-27T12:04:37;98930.63;;;2.50;37.44
63321;BME280;49449;48.800;9.534;2023-01-27T12:07:16;98935.03;;;2.49;38.48
63321;BME280;49449;48.800;9.534;2023-01-27T12:09:47;98926.69;;;2.54;38.67
63321;BME280;49449;48.800;9.534;2023-01-27T12:12:22;98911.84;;;2.55;39.38
63321;BME280;49449;48.800;9.534;2023-01-27T12:14:52;98922.28;;;2.55;38.84
63321;BME280;49449;48.800;9.534;2023-01-27T12:17:28;98918.88;;;2.54;38.82
63321;BME280;49449;48.800;9.534;2023-01-27T12:20:01;98926.06;;;2.60;39.28
63321;BME280;49449;48.800;9.534;2023-01-27T12:22:35;98922.44;;;2.61;38.38
63321;BME280;49449;48.800;9.534;2023-01-27T12:25:05;98927.34;;;2.64;38.94
63321;BME280;49449;48.800;9.534;2023-01-27T12:27:46;98933.84;;;2.68;39.71
63321;BME280;49449;48.800;9.534;2023-01-27T12:30:19;98924.25;;;2.69;39.68
63321;BME280;49449;48.800;9.534;2023-01-27T12:32:48;98926.69;;;2.71;38.60
63321;BME280;49449;48.800;9.534;2023-01-27T12:35:19;98914.78;;;2.60;39.12
63321;BME280;49449;48.800;9.534;2023-01-27T12:37:54;98912.38;;;2.50;40.09
63321;BME280;49449;48.800;9.534;2023-01-27T12:40:23;98913.00;;;2.52;38.71
63321;BME280;49449;48.800;9.534;2023-01-27T12:43:06;98901.13;;;2.41;39.87
63321;BME280;49449;48.800;9.534;2023-01-27T12:45:37;98900.81;;;2.44;38.57
63321;BME280;49449;48.800;9.534;2023-01-27T12:48:16;98897.53;;;2.51;39.96
63321;BME280;49449;48.800;9.534;2023-01-27T12:50:56;98895.41;;;2.54;39.37
63321;BME280;49449;48.800;9.534;2023-01-27T12:53:31;98890.66;;;2.58;39.37
63321;BME280;49449;48.800;9.534;2023-01-27T12:56:07;98899.31;;;2.58;39.65
63321;BME280;49449;48.800;9.534;2023-01-27T12:58:38;98893.44;;;2.64;39.21
63321;BME280;49449;48.800;9.534;2023-01-27T13:01:19;98892.94;;;2.69;41.45
63321;BME280;49449;48.800;9.534;2023-01-27T13:03:49;98893.41;;;2.73;39.21
63321;BME280;49449;48.800;9.534;2023-01-27T13:06:21;98886.56;;;2.72;40.15
63321;BME280;49449;48.800;9.534;2023-01-27T13:08:56;98881.97;;;2.74;38.62
63321;BME280;49449;48.800;9.534;2023-01-27T13:11:29;98889.81;;;2.74;39.99
63321;BME280;49449;48.800;9.534;2023-01-27T13:13:57;98883.44;;;2.76;39.06
63321;BME280;49449;48.800;9.534;2023-01-27T13:16:26;98898.47;;;2.74;39.25
63321;BME280;49449;48.800;9.534;2023-01-27T13:18:56;98901.88;;;2.75;39.88
63321;BME280;49449;48.800;9.534;2023-01-27T13:21:27;98898.09;;;2.77;40.39
63321;BME280;49449;48.800;9.534;2023-01-27T13:23:58;98900.56;;;2.79;39.27
63321;BME280;49449;48.800;9.534;2023-01-27T13:26:30;98916.38;;;2.77;40.27
63321;BME280;49449;48.800;9.534;2023-01-27T13:29:05;98917.22;;;2.78;39.67
63321;BME280;49449;48.800;9.534;2023-01-27T13:31:42;98911.00;;;2.79;39.79
63321;BME280;49449;48.800;9.534;2023-01-27T13:34:17;98908.38;;;2.79;40.95